Richfield, Wisconsin
Current Conditions -  °F | °C
As of 11:35 PM on Sunday 19 Oct 2014 (Local Time) from KETB Reporting Station
Clear Clear  
Wind Chill: 11°   Ceiling: Unl
Heat Index: 11°   Visibility: 10mi
Dew Point:   Wind: 13mph
Humidity: 67%   Direction: 230°SW
Pressure: 29.8"   Gusts: 20mph
Location:  43.26°N, 88.19°W
Report Text: KETB 200435Z AUTO 23011G17KT 10SM CLR 11/05 A2980 RMK AO2
Loading
Personal Weather Stations






























Interactive Weather Map
Tropical Storm Tracking
New forecast layout! Learn more

10-Day Weather Forecast

Advertisements
Track Severe Weather on mobile